sensor_id;sensor_type;location;lat;lon;timestamp;pressure;altitude;pressure_sealevel;temperature;humidity
65659;BME280;60181;53.258;6.932;2023-03-23T00:02:14;100197.64;;;13.79;64.30
65659;BME280;60181;53.258;6.932;2023-03-23T00:06:18;100192.63;;;13.79;64.33
65659;BME280;60181;53.258;6.932;2023-03-23T00:10:22;100187.28;;;13.79;64.22
65659;BME280;60181;53.258;6.932;2023-03-23T00:14:26;100181.34;;;13.78;64.29
65659;BME280;60181;53.258;6.932;2023-03-23T00:18:30;100175.59;;;13.78;64.39
65659;BME280;60181;53.258;6.932;2023-03-23T00:22:33;100169.07;;;13.77;64.31
65659;BME280;60181;53.258;6.932;2023-03-23T00:26:39;100161.18;;;13.77;64.35
65659;BME280;60181;53.258;6.932;2023-03-23T00:30:42;100154.52;;;13.76;64.43
65659;BME280;60181;53.258;6.932;2023-03-23T00:34:46;100150.46;;;13.76;64.37
65659;BME280;60181;53.258;6.932;2023-03-23T00:38:49;100146.93;;;13.76;64.35
65659;BME280;60181;53.258;6.932;2023-03-23T00:42:53;100143.23;;;13.75;64.40
65659;BME280;60181;53.258;6.932;2023-03-23T00:46:58;100142.66;;;13.75;64.40
65659;BME280;60181;53.258;6.932;2023-03-23T00:51:02;100143.56;;;13.75;64.41
65659;BME280;60181;53.258;6.932;2023-03-23T00:55:06;100142.81;;;13.76;64.37
65659;BME280;60181;53.258;6.932;2023-03-23T00:59:09;100141.41;;;13.76;64.27
65659;BME280;60181;53.258;6.932;2023-03-23T01:03:13;100141.41;;;13.76;64.30
65659;BME280;60181;53.258;6.932;2023-03-23T01:07:18;100142.56;;;13.76;64.30
65659;BME280;60181;53.258;6.932;2023-03-23T01:11:22;100146.86;;;13.77;64.32
65659;BME280;60181;53.258;6.932;2023-03-23T01:15:26;100152.37;;;13.76;64.36
65659;BME280;60181;53.258;6.932;2023-03-23T01:19:29;100152.87;;;13.76;64.40
65659;BME280;60181;53.258;6.932;2023-03-23T01:23:34;100151.78;;;13.76;64.36
65659;BME280;60181;53.258;6.932;2023-03-23T01:27:38;100150.47;;;13.75;64.43
65659;BME280;60181;53.258;6.932;2023-03-23T01:31:41;100148.10;;;13.75;64.41
65659;BME280;60181;53.258;6.932;2023-03-23T01:35:45;100142.55;;;13.75;64.34
65659;BME280;60181;53.258;6.932;2023-03-23T01:39:49;100137.05;;;13.75;64.32
65659;BME280;60181;53.258;6.932;2023-03-23T01:47:59;100116.05;;;13.73;64.36
65659;BME280;60181;53.258;6.932;2023-03-23T01:52:05;100108.83;;;13.73;64.31
65659;BME280;60181;53.258;6.932;2023-03-23T01:56:06;100102.38;;;13.72;64.30
65659;BME280;60181;53.258;6.932;2023-03-23T02:00:10;100096.55;;;13.72;64.35
65659;BME280;60181;53.258;6.932;2023-03-23T02:04:14;100092.33;;;13.71;64.30
65659;BME280;60181;53.258;6.932;2023-03-23T02:08:17;100089.29;;;13.71;64.28
65659;BME280;60181;53.258;6.932;2023-03-23T02:12:21;100088.22;;;13.71;64.25
65659;BME280;60181;53.258;6.932;2023-03-23T02:16:28;100083.70;;;13.71;64.27
65659;BME280;60181;53.258;6.932;2023-03-23T02:29:02;100064.68;;;13.70;64.24
65659;BME280;60181;53.258;6.932;2023-03-23T02:36:47;100058.59;;;13.70;64.30
65659;BME280;60181;53.258;6.932;2023-03-23T02:40:49;100055.06;;;13.70;64.31
65659;BME280;60181;53.258;6.932;2023-03-23T02:44:53;100053.83;;;13.70;64.26
65659;BME280;60181;53.258;6.932;2023-03-23T02:48:57;100052.84;;;13.70;64.25
65659;BME280;60181;53.258;6.932;2023-03-23T02:53:01;100049.47;;;13.70;64.32
65659;BME280;60181;53.258;6.932;2023-03-23T02:57:05;100045.42;;;13.69;64.31
65659;BME280;60181;53.258;6.932;2023-03-23T03:01:45;100040.49;;;13.69;64.29
65659;BME280;60181;53.258;6.932;2023-03-23T03:17:26;100019.75;;;13.68;64.29
65659;BME280;60181;53.258;6.932;2023-03-23T03:21:30;100016.05;;;13.67;64.31
65659;BME280;60181;53.258;6.932;2023-03-23T03:25:33;100011.58;;;13.67;64.28
65659;BME280;60181;53.258;6.932;2023-03-23T03:29:37;100008.95;;;13.67;64.21
65659;BME280;60181;53.258;6.932;2023-03-23T03:33:41;100005.58;;;13.67;64.23
65659;BME280;60181;53.258;6.932;2023-03-23T03:37:45;100003.61;;;13.67;64.16
65659;BME280;60181;53.258;6.932;2023-03-23T03:41:49;100000.41;;;13.66;64.19
65659;BME280;60181;53.258;6.932;2023-03-23T03:45:53;99996.62;;;13.66;64.18
65659;BME280;60181;53.258;6.932;2023-03-23T03:49:57;99991.69;;;13.66;64.19
65659;BME280;60181;53.258;6.932;2023-03-23T03:54:01;99988.48;;;13.66;64.19
65659;BME280;60181;53.258;6.932;2023-03-23T03:58:05;99985.91;;;13.66;64.17
65659;BME280;60181;53.258;6.932;2023-03-23T04:02:09;99985.74;;;13.66;64.18
65659;BME280;60181;53.258;6.932;2023-03-23T04:06:13;99986.33;;;13.66;64.17
65659;BME280;60181;53.258;6.932;2023-03-23T04:10:18;99989.21;;;13.65;64.16
65659;BME280;60181;53.258;6.932;2023-03-23T04:14:21;99992.60;;;13.65;64.15
65659;BME280;60181;53.258;6.932;2023-03-23T04:18:25;99993.07;;;13.65;64.16
65659;BME280;60181;53.258;6.932;2023-03-23T04:22:29;99995.95;;;13.64;64.21
65659;BME280;60181;53.258;6.932;2023-03-23T04:26:33;99998.85;;;13.64;64.25
65659;BME280;60181;53.258;6.932;2023-03-23T04:30:37;99996.92;;;13.64;64.21
65659;BME280;60181;53.258;6.932;2023-03-23T04:34:41;99993.89;;;13.64;64.23
65659;BME280;60181;53.258;6.932;2023-03-23T04:38:45;99990.28;;;13.63;64.29
65659;BME280;60181;53.258;6.932;2023-03-23T04:42:49;100001.96;;;13.63;64.27
65659;BME280;60181;53.258;6.932;2023-03-23T04:46:53;99997.41;;;13.63;64.33
65659;BME280;60181;53.258;6.932;2023-03-23T04:50:57;99998.16;;;13.63;64.29
65659;BME280;60181;53.258;6.932;2023-03-23T04:55:01;99998.99;;;13.63;64.20
65659;BME280;60181;53.258;6.932;2023-03-23T04:59:05;100001.54;;;13.62;64.18
65659;BME280;60181;53.258;6.932;2023-03-23T05:03:09;100006.90;;;13.62;64.18
65659;BME280;60181;53.258;6.932;2023-03-23T05:07:13;100010.99;;;13.62;64.20
65659;BME280;60181;53.258;6.932;2023-03-23T05:11:17;100010.51;;;13.61;64.21
65659;BME280;60181;53.258;6.932;2023-03-23T05:15:21;100005.16;;;13.60;64.21
65659;BME280;60181;53.258;6.932;2023-03-23T05:19:25;100002.76;;;13.60;64.24
65659;BME280;60181;53.258;6.932;2023-03-23T05:23:29;100000.45;;;13.59;64.19
65659;BME280;60181;53.258;6.932;2023-03-23T05:27:33;100001.53;;;13.59;64.25
65659;BME280;60181;53.258;6.932;2023-03-23T05:31:37;100002.76;;;13.59;64.18
65659;BME280;60181;53.258;6.932;2023-03-23T05:35:41;100004.10;;;13.58;64.19
65659;BME280;60181;53.258;6.932;2023-03-23T05:39:45;100004.32;;;13.58;64.20
65659;BME280;60181;53.258;6.932;2023-03-23T05:43:49;100008.59;;;13.58;64.16
65659;BME280;60181;53.258;6.932;2023-03-23T05:47:53;100011.89;;;13.58;64.20
65659;BME280;60181;53.258;6.932;2023-03-23T05:51:57;100015.77;;;13.58;64.20
65659;BME280;60181;53.258;6.932;2023-03-23T05:56:01;100019.22;;;13.58;64.24
65659;BME280;60181;53.258;6.932;2023-03-23T06:00:06;100023.25;;;13.58;64.22
65659;BME280;60181;53.258;6.932;2023-03-23T06:04:09;100026.78;;;13.58;64.10
65659;BME280;60181;53.258;6.932;2023-03-23T06:08:13;100030.17;;;13.59;64.10
65659;BME280;60181;53.258;6.932;2023-03-23T06:12:17;100033.14;;;13.60;63.98
65659;BME280;60181;53.258;6.932;2023-03-23T06:16:21;100035.94;;;13.61;63.91
65659;BME280;60181;53.258;6.932;2023-03-23T06:20:25;100037.51;;;13.62;63.88
65659;BME280;60181;53.258;6.932;2023-03-23T06:24:29;100038.39;;;13.63;63.82
65659;BME280;60181;53.258;6.932;2023-03-23T06:28:33;100042.35;;;13.64;63.77
65659;BME280;60181;53.258;6.932;2023-03-23T06:32:37;100047.38;;;13.65;63.78
65659;BME280;60181;53.258;6.932;2023-03-23T06:36:41;100051.50;;;13.66;63.72
65659;BME280;60181;53.258;6.932;2023-03-23T06:40:45;100054.81;;;13.66;63.73
65659;BME280;60181;53.258;6.932;2023-03-23T06:44:49;100059.98;;;13.67;63.82
65659;BME280;60181;53.258;6.932;2023-03-23T06:48:53;100068.06;;;13.67;63.77
65659;BME280;60181;53.258;6.932;2023-03-23T06:52:57;100074.89;;;13.68;63.87
65659;BME280;60181;53.258;6.932;2023-03-23T06:57:01;100081.87;;;13.68;63.88
65659;BME280;60181;53.258;6.932;2023-03-23T07:01:05;100087.39;;;13.68;63.95
65659;BME280;60181;53.258;6.932;2023-03-23T07:05:09;100093.30;;;13.67;63.98
65659;BME280;60181;53.258;6.932;2023-03-23T07:09:13;100101.45;;;13.67;63.91
65659;BME280;60181;53.258;6.932;2023-03-23T07:13:17;100108.29;;;13.67;63.93
65659;BME280;60181;53.258;6.932;2023-03-23T07:17:21;100114.31;;;13.66;63.97
65659;BME280;60181;53.258;6.932;2023-03-23T07:21:25;100119.98;;;13.66;63.88
65659;BME280;60181;53.258;6.932;2023-03-23T07:25:29;100124.34;;;13.66;63.74
65659;BME280;60181;53.258;6.932;2023-03-23T07:29:33;100128.69;;;13.67;63.66
65659;BME280;60181;53.258;6.932;2023-03-23T07:33:37;100131.84;;;13.68;63.69
65659;BME280;60181;53.258;6.932;2023-03-23T07:37:41;100133.56;;;13.68;63.57
65659;BME280;60181;53.258;6.932;2023-03-23T07:41:45;100136.27;;;13.69;63.41
65659;BME280;60181;53.258;6.932;2023-03-23T07:45:49;100138.26;;;13.71;63.16
65659;BME280;60181;53.258;6.932;2023-03-23T07:49:53;100140.73;;;13.74;63.10
65659;BME280;60181;53.258;6.932;2023-03-23T07:53:57;100144.56;;;13.77;63.10
65659;BME280;60181;53.258;6.932;2023-03-23T07:58:01;100148.19;;;13.79;63.09
65659;BME280;60181;53.258;6.932;2023-03-23T08:02:05;100151.23;;;13.80;63.15
65659;BME280;60181;53.258;6.932;2023-03-23T08:06:09;100155.27;;;13.81;63.19
65659;BME280;60181;53.258;6.932;2023-03-23T08:10:13;100157.98;;;13.82;63.16
65659;BME280;60181;53.258;6.932;2023-03-23T08:14:17;100161.55;;;13.84;63.00
65659;BME280;60181;53.258;6.932;2023-03-23T08:18:21;100165.17;;;13.87;62.93
65659;BME280;60181;53.258;6.932;2023-03-23T08:22:25;100168.91;;;13.90;62.88
65659;BME280;60181;53.258;6.932;2023-03-23T08:26:29;100173.00;;;13.92;62.85
65659;BME280;60181;53.258;6.932;2023-03-23T08:30:33;100175.16;;;13.94;62.86
65659;BME280;60181;53.258;6.932;2023-03-23T08:34:37;100179.30;;;13.95;62.83
65659;BME280;60181;53.258;6.932;2023-03-23T08:38:41;100182.92;;;13.96;62.86
65659;BME280;60181;53.258;6.932;2023-03-23T08:42:45;100185.79;;;13.97;62.84
65659;BME280;60181;53.258;6.932;2023-03-23T08:46:49;100190.42;;;13.98;62.86
65659;BME280;60181;53.258;6.932;2023-03-23T08:50:53;100195.76;;;13.98;62.85
65659;BME280;60181;53.258;6.932;2023-03-23T08:54:57;100200.70;;;13.98;62.81
65659;BME280;60181;53.258;6.932;2023-03-23T08:59:01;100204.91;;;13.99;62.78
65659;BME280;60181;53.258;6.932;2023-03-23T09:03:05;100207.29;;;14.00;62.76
65659;BME280;60181;53.258;6.932;2023-03-23T09:07:09;100209.45;;;14.01;62.67
65659;BME280;60181;53.258;6.932;2023-03-23T09:11:13;100210.12;;;14.04;62.50
65659;BME280;60181;53.258;6.932;2023-03-23T09:15:17;100211.28;;;14.07;62.40
65659;BME280;60181;53.258;6.932;2023-03-23T09:19:21;100212.05;;;14.11;62.31
65659;BME280;60181;53.258;6.932;2023-03-23T09:23:25;100213.06;;;14.15;62.27
65659;BME280;60181;53.258;6.932;2023-03-23T09:27:29;100217.42;;;14.18;62.43
65659;BME280;60181;53.258;6.932;2023-03-23T09:31:33;100221.06;;;14.19;62.54
65659;BME280;60181;53.258;6.932;2023-03-23T09:35:37;100222.55;;;14.19;62.62
65659;BME280;60181;53.258;6.932;2023-03-23T09:39:41;100226.39;;;14.18;62.60
65659;BME280;60181;53.258;6.932;2023-03-23T09:43:51;100230.94;;;14.19;62.44
65659;BME280;60181;53.258;6.932;2023-03-23T09:51:54;100238.03;;;14.21;62.47
65659;BME280;60181;53.258;6.932;2023-03-23T09:55:57;100241.64;;;14.22;62.53
65659;BME280;60181;53.258;6.932;2023-03-23T10:00:03;100245.76;;;14.22;62.56
65659;BME280;60181;53.258;6.932;2023-03-23T10:04:07;100248.58;;;14.21;62.55
65659;BME280;60181;53.258;6.932;2023-03-23T10:08:13;100250.87;;;14.22;62.49
65659;BME280;60181;53.258;6.932;2023-03-23T10:16:24;100251.81;;;14.25;62.27
65659;BME280;60181;53.258;6.932;2023-03-23T10:32:40;100258.26;;;14.33;62.17
65659;BME280;60181;53.258;6.932;2023-03-23T10:36:38;100260.57;;;14.35;62.20
65659;BME280;60181;53.258;6.932;2023-03-23T10:40:48;100262.55;;;14.36;62.23
65659;BME280;60181;53.258;6.932;2023-03-23T10:44:45;100265.94;;;14.37;62.25
65659;BME280;60181;53.258;6.932;2023-03-23T10:48:49;100270.31;;;14.37;62.30
65659;BME280;60181;53.258;6.932;2023-03-23T10:52:53;100275.01;;;14.37;62.33
65659;BME280;60181;53.258;6.932;2023-03-23T10:56:57;100277.46;;;14.36;62.41
65659;BME280;60181;53.258;6.932;2023-03-23T11:01:02;100279.27;;;14.35;62.45
65659;BME280;60181;53.258;6.932;2023-03-23T11:05:20;100282.06;;;14.34;62.46
65659;BME280;60181;53.258;6.932;2023-03-23T11:09:10;100284.45;;;14.33;62.50
65659;BME280;60181;53.258;6.932;2023-03-23T11:13:13;100286.75;;;14.32;62.47
65659;BME280;60181;53.258;6.932;2023-03-23T11:17:26;100287.00;;;14.31;62.52
65659;BME280;60181;53.258;6.932;2023-03-23T11:21:22;100288.90;;;14.30;62.54
65659;BME280;60181;53.258;6.932;2023-03-23T11:25:25;100288.08;;;14.29;62.50
65659;BME280;60181;53.258;6.932;2023-03-23T11:29:29;100287.97;;;14.28;62.46
65659;BME280;60181;53.258;6.932;2023-03-23T11:33:41;100288.96;;;14.28;62.44
65659;BME280;60181;53.258;6.932;2023-03-23T11:41:41;100291.19;;;14.28;62.49
65659;BME280;60181;53.258;6.932;2023-03-23T11:49:55;100293.66;;;14.28;62.44
65659;BME280;60181;53.258;6.932;2023-03-23T11:53:58;100296.48;;;14.29;62.45
65659;BME280;60181;53.258;6.932;2023-03-23T11:58:00;100300.02;;;14.29;62.43
65659;BME280;60181;53.258;6.932;2023-03-23T12:06:09;100304.88;;;14.29;62.48
65659;BME280;60181;53.258;6.932;2023-03-23T12:18:36;100314.75;;;14.28;62.48
65659;BME280;60181;53.258;6.932;2023-03-23T12:22:28;100316.16;;;14.28;62.49
65659;BME280;60181;53.258;6.932;2023-03-23T12:26:25;100317.05;;;14.27;62.48
65659;BME280;60181;53.258;6.932;2023-03-23T12:30:34;100316.56;;;14.27;62.49
65659;BME280;60181;53.258;6.932;2023-03-23T12:55:00;100322.41;;;14.26;62.48
65659;BME280;60181;53.258;6.932;2023-03-23T12:59:00;100325.20;;;14.26;62.46
65659;BME280;60181;53.258;6.932;2023-03-23T13:03:04;100324.80;;;14.26;62.95
65659;BME280;60181;53.258;6.932;2023-03-23T13:07:05;100324.55;;;14.28;62.33
65659;BME280;60181;53.258;6.932;2023-03-23T13:11:11;100324.98;;;14.33;61.99
65659;BME280;60181;53.258;6.932;2023-03-23T13:15:21;100323.63;;;14.38;61.88
65659;BME280;60181;53.258;6.932;2023-03-23T13:23:28;100322.24;;;14.45;62.04
65659;BME280;60181;53.258;6.932;2023-03-23T13:27:25;100320.86;;;14.47;71.75
65659;BME280;60181;53.258;6.932;2023-03-23T13:31:32;100317.95;;;14.45;79.50
65659;BME280;60181;53.258;6.932;2023-03-23T13:35:36;100315.88;;;14.38;72.91
65659;BME280;60181;53.258;6.932;2023-03-23T13:39:38;100316.09;;;14.30;67.30
65659;BME280;60181;53.258;6.932;2023-03-23T13:43:41;100314.83;;;14.26;65.01
65659;BME280;60181;53.258;6.932;2023-03-23T13:47:44;100314.65;;;14.26;64.39
65659;BME280;60181;53.258;6.932;2023-03-23T13:51:53;100312.60;;;14.27;63.98
65659;BME280;60181;53.258;6.932;2023-03-23T13:59:57;100311.49;;;14.33;63.26
65659;BME280;60181;53.258;6.932;2023-03-23T14:04:00;100312.66;;;14.36;63.39
65659;BME280;60181;53.258;6.932;2023-03-23T14:08:14;100314.48;;;14.38;63.43
65659;BME280;60181;53.258;6.932;2023-03-23T14:12:15;100317.55;;;14.40;63.16
65659;BME280;60181;53.258;6.932;2023-03-23T14:16:20;100319.17;;;14.42;63.12
65659;BME280;60181;53.258;6.932;2023-03-23T14:20:36;100319.44;;;14.43;63.24
65659;BME280;60181;53.258;6.932;2023-03-23T14:24:22;100320.93;;;14.42;63.30
65659;BME280;60181;53.258;6.932;2023-03-23T14:28:27;100323.24;;;14.42;63.40
65659;BME280;60181;53.258;6.932;2023-03-23T14:32:29;100323.81;;;14.43;63.19
65659;BME280;60181;53.258;6.932;2023-03-23T14:36:33;100324.63;;;14.45;63.13
65659;BME280;60181;53.258;6.932;2023-03-23T14:40:36;100325.22;;;14.46;63.25
65659;BME280;60181;53.258;6.932;2023-03-23T14:44:41;100326.62;;;14.46;63.27
65659;BME280;60181;53.258;6.932;2023-03-23T14:48:44;100325.80;;;14.46;63.20
65659;BME280;60181;53.258;6.932;2023-03-23T14:52:48;100325.54;;;14.46;63.10
65659;BME280;60181;53.258;6.932;2023-03-23T14:56:53;100325.06;;;14.46;63.38
65659;BME280;60181;53.258;6.932;2023-03-23T15:01:04;100323.32;;;14.45;63.34
65659;BME280;60181;53.258;6.932;2023-03-23T15:05:02;100320.93;;;14.45;63.26
65659;BME280;60181;53.258;6.932;2023-03-23T15:09:09;100318.12;;;14.45;63.22
65659;BME280;60181;53.258;6.932;2023-03-23T15:13:12;100314.75;;;14.45;63.26
65659;BME280;60181;53.258;6.932;2023-03-23T15:17:19;100316.80;;;14.45;63.26
65659;BME280;60181;53.258;6.932;2023-03-23T15:21:22;100315.90;;;14.45;63.31
65659;BME280;60181;53.258;6.932;2023-03-23T15:25:29;100315.16;;;14.45;63.30
65659;BME280;60181;53.258;6.932;2023-03-23T15:29:24;100311.95;;;14.44;63.23
65659;BME280;60181;53.258;6.932;2023-03-23T15:33:35;100308.42;;;14.44;63.30
65659;BME280;60181;53.258;6.932;2023-03-23T15:37:32;100304.28;;;14.44;63.32
65659;BME280;60181;53.258;6.932;2023-03-23T15:41:44;100302.15;;;14.43;63.45
65659;BME280;60181;53.258;6.932;2023-03-23T15:45:50;100300.06;;;14.43;63.42
65659;BME280;60181;53.258;6.932;2023-03-23T15:49:46;100299.50;;;14.43;63.40
65659;BME280;60181;53.258;6.932;2023-03-23T15:53:49;100297.44;;;14.42;63.36
65659;BME280;60181;53.258;6.932;2023-03-23T15:57:53;100295.87;;;14.42;63.55
65659;BME280;60181;53.258;6.932;2023-03-23T16:01:56;100292.00;;;14.41;63.51
65659;BME280;60181;53.258;6.932;2023-03-23T16:06:00;100291.19;;;14.41;63.48
65659;BME280;60181;53.258;6.932;2023-03-23T16:10:05;100290.66;;;14.39;63.62
65659;BME280;60181;53.258;6.932;2023-03-23T16:14:08;100290.41;;;14.38;63.62
65659;BME280;60181;53.258;6.932;2023-03-23T16:18:19;100290.83;;;14.37;63.83
65659;BME280;60181;53.258;6.932;2023-03-23T16:22:16;100292.47;;;14.39;63.42
65659;BME280;60181;53.258;6.932;2023-03-23T16:26:20;100291.33;;;14.41;63.43
65659;BME280;60181;53.258;6.932;2023-03-23T16:30:25;100291.82;;;14.42;63.48
65659;BME280;60181;53.258;6.932;2023-03-23T16:34:28;100293.06;;;14.42;63.48
65659;BME280;60181;53.258;6.932;2023-03-23T16:38:32;100293.39;;;14.42;63.32
65659;BME280;60181;53.258;6.932;2023-03-23T16:42:36;100294.47;;;14.42;63.27
65659;BME280;60181;53.258;6.932;2023-03-23T16:46:40;100295.61;;;14.43;63.22
65659;BME280;60181;53.258;6.932;2023-03-23T16:50:44;100297.20;;;14.43;63.31
65659;BME280;60181;53.258;6.932;2023-03-23T16:54:48;100298.58;;;14.43;63.31
65659;BME280;60181;53.258;6.932;2023-03-23T16:58:52;100302.06;;;14.42;63.33
65659;BME280;60181;53.258;6.932;2023-03-23T17:02:56;100304.94;;;14.42;63.30
65659;BME280;60181;53.258;6.932;2023-03-23T17:07:00;100308.62;;;14.42;63.35
65659;BME280;60181;53.258;6.932;2023-03-23T17:11:04;100312.34;;;14.42;63.46
65659;BME280;60181;53.258;6.932;2023-03-23T17:15:09;100314.90;;;14.41;63.48
65659;BME280;60181;53.258;6.932;2023-03-23T17:19:12;100316.89;;;14.41;63.49
65659;BME280;60181;53.258;6.932;2023-03-23T17:23:16;100319.20;;;14.41;63.51
65659;BME280;60181;53.258;6.932;2023-03-23T17:27:20;100320.08;;;14.41;63.59
65659;BME280;60181;53.258;6.932;2023-03-23T17:31:24;100318.94;;;14.40;63.57
65659;BME280;60181;53.258;6.932;2023-03-23T17:35:28;100320.01;;;14.40;63.63
65659;BME280;60181;53.258;6.932;2023-03-23T17:39:32;100320.49;;;14.39;63.61
65659;BME280;60181;53.258;6.932;2023-03-23T17:43:39;100321.56;;;14.39;63.53
65659;BME280;60181;53.258;6.932;2023-03-23T17:47:40;100321.66;;;14.39;63.55
65659;BME280;60181;53.258;6.932;2023-03-23T17:51:44;100320.74;;;14.39;64.13
65659;BME280;60181;53.258;6.932;2023-03-23T17:55:48;100322.47;;;14.39;63.91
65659;BME280;60181;53.258;6.932;2023-03-23T17:59:52;100323.95;;;14.39;63.82
65659;BME280;60181;53.258;6.932;2023-03-23T18:03:56;100326.67;;;14.40;63.69
65659;BME280;60181;53.258;6.932;2023-03-23T18:08:00;100328.41;;;14.39;63.67
65659;BME280;60181;53.258;6.932;2023-03-23T18:12:04;100328.41;;;14.39;63.67
65659;BME280;60181;53.258;6.932;2023-03-23T18:16:08;100326.84;;;14.39;63.62
65659;BME280;60181;53.258;6.932;2023-03-23T18:20:12;100324.70;;;14.39;63.70
65659;BME280;60181;53.258;6.932;2023-03-23T18:24:16;100322.89;;;14.39;63.75
65659;BME280;60181;53.258;6.932;2023-03-23T18:28:20;100322.30;;;14.39;63.75
65659;BME280;60181;53.258;6.932;2023-03-23T18:32:24;100323.36;;;14.40;63.66
65659;BME280;60181;53.258;6.932;2023-03-23T18:36:28;100322.72;;;14.41;64.42
65659;BME280;60181;53.258;6.932;2023-03-23T18:40:32;100321.09;;;14.42;64.33
65659;BME280;60181;53.258;6.932;2023-03-23T18:44:36;100319.11;;;14.43;64.11
65659;BME280;60181;53.258;6.932;2023-03-23T18:48:40;100315.23;;;14.43;64.06
65659;BME280;60181;53.258;6.932;2023-03-23T18:52:44;100312.26;;;14.43;64.08
65659;BME280;60181;53.258;6.932;2023-03-23T18:56:48;100308.23;;;14.43;64.07
65659;BME280;60181;53.258;6.932;2023-03-23T19:00:55;100303.12;;;14.43;64.00
65659;BME280;60181;53.258;6.932;2023-03-23T19:04:56;100299.50;;;14.43;64.00
65659;BME280;60181;53.258;6.932;2023-03-23T19:09:00;100295.87;;;14.43;64.00
65659;BME280;60181;53.258;6.932;2023-03-23T19:13:04;100292.24;;;14.43;64.00
65659;BME280;60181;53.258;6.932;2023-03-23T19:17:08;100290.34;;;14.43;64.02
65659;BME280;60181;53.258;6.932;2023-03-23T19:21:12;100287.98;;;14.43;64.03
65659;BME280;60181;53.258;6.932;2023-03-23T19:25:16;100284.59;;;14.43;64.04
65659;BME280;60181;53.258;6.932;2023-03-23T19:29:20;100281.78;;;14.44;64.02
65659;BME280;60181;53.258;6.932;2023-03-23T19:33:24;100277.17;;;14.44;64.00
65659;BME280;60181;53.258;6.932;2023-03-23T19:37:28;100272.90;;;14.44;64.00
65659;BME280;60181;53.258;6.932;2023-03-23T19:41:32;100269.51;;;14.45;64.05
65659;BME280;60181;53.258;6.932;2023-03-23T19:45:36;100265.55;;;14.45;64.04
65659;BME280;60181;53.258;6.932;2023-03-23T19:49:40;100261.77;;;14.46;64.04
65659;BME280;60181;53.258;6.932;2023-03-23T19:53:44;100258.80;;;14.46;64.05
65659;BME280;60181;53.258;6.932;2023-03-23T19:57:48;100256.27;;;14.47;64.08
65659;BME280;60181;53.258;6.932;2023-03-23T20:01:52;100254.94;;;14.47;64.11
65659;BME280;60181;53.258;6.932;2023-03-23T20:05:59;100253.69;;;14.47;64.10
65659;BME280;60181;53.258;6.932;2023-03-23T20:10:00;100252.06;;;14.48;64.13
65659;BME280;60181;53.258;6.932;2023-03-23T20:14:04;100250.81;;;14.48;64.19
65659;BME280;60181;53.258;6.932;2023-03-23T20:18:08;100247.44;;;14.48;64.15
65659;BME280;60181;53.258;6.932;2023-03-23T20:22:12;100243.06;;;14.49;64.18
65659;BME280;60181;53.258;6.932;2023-03-23T20:26:20;100239.04;;;14.49;64.19
65659;BME280;60181;53.258;6.932;2023-03-23T20:30:20;100235.00;;;14.49;64.18
65659;BME280;60181;53.258;6.932;2023-03-23T20:34:24;100229.97;;;14.49;64.21
65659;BME280;60181;53.258;6.932;2023-03-23T20:38:28;100223.28;;;14.50;64.21
65659;BME280;60181;53.258;6.932;2023-03-23T20:42:33;100216.03;;;14.50;64.23
65659;BME280;60181;53.258;6.932;2023-03-23T20:46:36;100210.13;;;14.50;64.25
65659;BME280;60181;53.258;6.932;2023-03-23T20:50:40;100202.70;;;14.53;65.40
65659;BME280;60181;53.258;6.932;2023-03-23T20:54:44;100198.35;;;14.55;65.03
65659;BME280;60181;53.258;6.932;2023-03-23T20:58:48;100195.31;;;14.55;64.85
65659;BME280;60181;53.258;6.932;2023-03-23T21:02:52;100192.75;;;14.56;64.85
65659;BME280;60181;53.258;6.932;2023-03-23T21:06:56;100190.20;;;14.55;64.93
65659;BME280;60181;53.258;6.932;2023-03-23T21:11:00;100188.72;;;14.55;64.93
65659;BME280;60181;53.258;6.932;2023-03-23T21:15:04;100185.49;;;14.55;64.92
65659;BME280;60181;53.258;6.932;2023-03-23T21:19:08;100180.62;;;14.57;65.42
65659;BME280;60181;53.258;6.932;2023-03-23T21:23:12;100174.85;;;14.58;65.61
65659;BME280;60181;53.258;6.932;2023-03-23T21:27:16;100167.85;;;14.58;65.83
65659;BME280;60181;53.258;6.932;2023-03-23T21:31:20;100160.67;;;14.57;65.84
65659;BME280;60181;53.258;6.932;2023-03-23T21:35:24;100152.94;;;14.57;66.04
65659;BME280;60181;53.258;6.932;2023-03-23T21:39:28;100146.17;;;14.56;66.10
65659;BME280;60181;53.258;6.932;2023-03-23T21:43:32;100139.34;;;14.56;66.34
65659;BME280;60181;53.258;6.932;2023-03-23T21:47:36;100133.65;;;14.55;66.54
65659;BME280;60181;53.258;6.932;2023-03-23T21:51:40;100125.59;;;14.54;66.71
65659;BME280;60181;53.258;6.932;2023-03-23T21:55:44;100115.61;;;14.54;66.95
65659;BME280;60181;53.258;6.932;2023-03-23T21:59:48;100107.28;;;14.53;67.08
65659;BME280;60181;53.258;6.932;2023-03-23T22:03:52;100098.55;;;14.53;69.42
65659;BME280;60181;53.258;6.932;2023-03-23T22:07:56;100089.31;;;14.53;70.01
65659;BME280;60181;53.258;6.932;2023-03-23T22:12:00;100080.83;;;14.53;67.65
65659;BME280;60181;53.258;6.932;2023-03-23T22:16:04;100074.08;;;14.52;67.92
65659;BME280;60181;53.258;6.932;2023-03-23T22:20:09;100067.22;;;14.52;67.84
65659;BME280;60181;53.258;6.932;2023-03-23T22:24:12;100059.09;;;14.52;68.07
65659;BME280;60181;53.258;6.932;2023-03-23T22:28:16;100051.58;;;14.52;70.44
65659;BME280;60181;53.258;6.932;2023-03-23T22:32:20;100044.33;;;14.52;69.43
65659;BME280;60181;53.258;6.932;2023-03-23T22:36:24;100035.02;;;14.52;69.91
65659;BME280;60181;53.258;6.932;2023-03-23T22:40:28;100026.26;;;14.51;68.23
65659;BME280;60181;53.258;6.932;2023-03-23T22:44:32;100018.87;;;14.51;68.93
65659;BME280;60181;53.258;6.932;2023-03-23T22:48:36;100011.11;;;14.50;68.36
65659;BME280;60181;53.258;6.932;2023-03-23T22:52:40;100003.28;;;14.50;68.59